createdAt,value
2024-01-09T00:02:39.899Z,102255.00
2024-01-09T00:12:39.869Z,102255.00
2024-01-09T00:22:39.843Z,102255.00
2024-01-09T00:32:39.995Z,102255.00
2024-01-09T00:42:39.842Z,102255.00
2024-01-09T00:52:39.885Z,102255.00
2024-01-09T01:02:39.925Z,102255.00
2024-01-09T01:12:39.889Z,102255.00
2024-01-09T01:22:39.874Z,102255.00
2024-01-09T01:32:39.959Z,102255.00
2024-01-09T01:42:39.921Z,102255.00
2024-01-09T01:52:39.932Z,102255.00
2024-01-09T02:02:40.021Z,102255.00
2024-01-09T02:12:39.951Z,102255.00
2024-01-09T02:22:39.965Z,102255.00
2024-01-09T02:32:40.060Z,102255.00
2024-01-09T02:42:39.974Z,102255.00
2024-01-09T02:52:39.988Z,102255.00
2024-01-09T03:02:40.141Z,102255.00
2024-01-09T03:12:40.045Z,102255.00
2024-01-09T03:22:40.037Z,102255.00
2024-01-09T03:32:40.162Z,102255.00
2024-01-09T03:42:40.039Z,102255.00
2024-01-09T03:52:40.031Z,102255.00
2024-01-09T04:02:40.112Z,102255.00
2024-01-09T04:12:40.075Z,102255.00
2024-01-09T04:22:40.092Z,102255.00
2024-01-09T04:32:40.230Z,102255.00
2024-01-09T04:42:40.093Z,102255.00
2024-01-09T04:52:40.100Z,102255.00
2024-01-09T05:02:40.211Z,102255.00
2024-01-09T05:12:40.117Z,102255.00
2024-01-09T05:22:40.137Z,102255.00
2024-01-09T05:32:40.338Z,102255.00
2024-01-09T05:42:40.120Z,102255.00
2024-01-09T05:52:40.186Z,102255.00
2024-01-09T06:02:40.248Z,102255.00
2024-01-09T06:12:40.171Z,102255.00
2024-01-09T06:22:40.188Z,102255.00
2024-01-09T06:32:40.288Z,102255.00
2024-01-09T06:42:40.216Z,102255.00
2024-01-09T06:52:40.212Z,102255.00
2024-01-09T07:02:40.406Z,102255.00
2024-01-09T07:12:40.241Z,102255.00
2024-01-09T07:22:42.349Z,102255.00
2024-01-09T07:32:42.408Z,102255.00
2024-01-09T07:42:48.977Z,102255.00
2024-01-09T07:52:44.311Z,102255.00
2024-01-09T08:02:44.362Z,102255.00
2024-01-09T08:12:44.342Z,102255.00
2024-01-09T08:22:44.333Z,102255.00
2024-01-09T08:32:44.505Z,102255.00
2024-01-09T08:42:44.372Z,102255.00
2024-01-09T08:52:44.348Z,102255.00
2024-01-09T09:02:44.432Z,102255.00
2024-01-09T09:12:44.464Z,102255.00
2024-01-09T09:22:44.386Z,102255.00
2024-01-09T09:32:44.124Z,102312.00
2024-01-09T09:42:44.006Z,102312.00
2024-01-09T09:52:44.082Z,102310.00
2024-01-09T10:02:44.494Z,102310.00
2024-01-09T10:12:44.046Z,102300.00
2024-01-09T10:22:44.034Z,102298.00
2024-01-09T10:32:45.993Z,102298.00
2024-01-09T10:42:46.160Z,102290.00
2024-01-09T10:52:46.434Z,102290.00
2024-01-09T11:02:46.395Z,102259.00
2024-01-09T11:12:46.252Z,102253.00
2024-01-09T11:22:46.449Z,102253.00
2024-01-09T11:32:46.552Z,102253.00
2024-01-09T11:42:46.517Z,102253.00
2024-01-09T11:52:46.536Z,102253.00
2024-01-09T12:02:46.571Z,102253.00
2024-01-09T12:12:46.571Z,102253.00
2024-01-09T12:22:46.572Z,102253.00
2024-01-09T12:32:46.838Z,102253.00
2024-01-09T12:42:46.586Z,102253.00
2024-01-09T12:52:46.593Z,102253.00
2024-01-09T13:02:46.700Z,102253.00
2024-01-09T13:12:46.338Z,102125.00
2024-01-09T13:32:48.811Z,102118.00
2024-01-09T13:42:48.617Z,102118.00
2024-01-09T13:52:48.648Z,102118.00
2024-01-09T14:02:48.739Z,102118.00
2024-01-09T14:12:48.686Z,102118.00
2024-01-09T14:22:48.727Z,102118.00
2024-01-09T14:32:48.719Z,102118.00
2024-01-09T14:42:48.714Z,102118.00
2024-01-09T14:52:48.759Z,102118.00
2024-01-09T15:02:48.741Z,102118.00
2024-01-09T15:12:48.717Z,102118.00
2024-01-09T15:22:48.815Z,102118.00
2024-01-09T15:32:48.958Z,102118.00
2024-01-09T15:42:48.822Z,102118.00
2024-01-09T15:52:48.808Z,102118.00
2024-01-09T16:02:48.822Z,102118.00
2024-01-09T16:12:48.829Z,102118.00
2024-01-09T16:22:48.835Z,102118.00
2024-01-09T16:32:48.961Z,102118.00
2024-01-09T16:42:48.841Z,102118.00
2024-01-09T16:52:48.898Z,102118.00
2024-01-09T17:02:48.901Z,102118.00
2024-01-09T17:12:48.873Z,102118.00
2024-01-09T17:22:48.923Z,102118.00
2024-01-09T17:32:49.118Z,102118.00
2024-01-09T17:42:48.880Z,102118.00
2024-01-09T17:52:48.976Z,102118.00
2024-01-09T18:02:48.930Z,102118.00
2024-01-09T18:12:49.027Z,102118.00
2024-01-09T18:22:49.031Z,102118.00
2024-01-09T18:32:48.961Z,102118.00
2024-01-09T18:42:48.965Z,102118.00
2024-01-09T18:52:49.075Z,102118.00
2024-01-09T19:02:49.078Z,102118.00
2024-01-09T19:12:49.014Z,102118.00
2024-01-09T19:22:49.391Z,102118.00
2024-01-09T19:32:49.120Z,102118.00
2024-01-09T19:42:49.030Z,102118.00
2024-01-09T19:52:48.848Z,102118.00
2024-01-09T20:02:48.867Z,102118.00
2024-01-09T20:12:48.703Z,102118.00
2024-01-09T20:22:48.762Z,102118.00
2024-01-09T20:32:48.804Z,102118.00
2024-01-09T20:42:48.742Z,102118.00
2024-01-09T20:52:48.985Z,102118.00
2024-01-09T21:02:49.008Z,102118.00
2024-01-09T21:12:49.114Z,102118.00
2024-01-09T21:22:49.179Z,102118.00
2024-01-09T21:32:49.109Z,102118.00
2024-01-09T21:42:49.169Z,102118.00
2024-01-09T21:52:49.210Z,102118.00
2024-01-09T22:02:49.174Z,102118.00
2024-01-09T22:12:49.080Z,102118.00
2024-01-09T22:22:49.225Z,102118.00
2024-01-09T22:32:49.271Z,102118.00
2024-01-09T22:42:50.047Z,102118.00
2024-01-09T22:52:50.335Z,102118.00
2024-01-09T23:02:50.247Z,102118.00
2024-01-09T23:12:50.250Z,102118.00
2024-01-09T23:22:49.991Z,102064.00
2024-01-09T23:32:49.910Z,102060.00
2024-01-09T23:42:49.919Z,102056.00
2024-01-09T23:52:49.907Z,102052.00
